Time;durP1;ratioP1;P1;durP2;ratioP2;P2;SDS_P1;SDS_P2;PMS_P1;PMS_P2;Temp;Humidity;BMP_temperature;BMP_pressure;BME280_temperature;BME280_humidity;BME280_pressure;Samples;Min_cycle;Max_cycle;Signal;HPM_P1;HPM_P2
2022/12/22 03:27:48;;;;;;;40.47;27.00;;;;;;;;;;6265996;28;20061;-78
2022/12/22 03:30:55;;;;;;;37.95;26.92;;;;;;;;;;6270745;28;20053;-79
2022/12/22 03:33:58;;;;;;;40.85;27.38;;;;;;;;;;6266886;28;20075;-76
2022/12/22 03:36:59;;;;;;;39.92;26.88;;;;;;;;;;6267454;28;20050;-78
2022/12/22 03:40:01;;;;;;;41.03;26.75;;;;;;;;;;6263478;28;20131;-79
2022/12/22 03:46:30;;;;;;;39.10;27.90;;;;;;;;;;6214507;28;20100;-73
2022/12/22 03:49:33;;;;;;;37.92;25.60;;;;;;;;;;6212148;28;20215;-78
2022/12/22 03:52:35;;;;;;;36.17;26.20;;;;;;;;;;6213228;28;20353;-75
2022/12/22 03:55:37;;;;;;;37.65;26.30;;;;;;;;;;6214703;28;20112;-76
2022/12/22 03:58:38;;;;;;;38.72;26.50;;;;;;;;;;6209968;28;20349;-73
2022/12/22 04:01:41;;;;;;;40.75;26.85;;;;;;;;;;6215790;28;20093;-79
2022/12/22 04:04:44;;;;;;;41.28;27.23;;;;;;;;;;6213184;28;20295;-79
2022/12/22 04:07:46;;;;;;;40.58;27.27;;;;;;;;;;6208985;28;20442;-78
2022/12/22 04:14:07;;;;;;;42.72;27.98;;;;;;;;;;6214075;28;20401;-74
2022/12/22 04:17:09;;;;;;;42.25;27.75;;;;;;;;;;6212179;28;20380;-75
2022/12/22 04:20:13;;;;;;;38.92;27.25;;;;;;;;;;6211640;28;20054;-74
2022/12/22 04:23:14;;;;;;;38.60;27.10;;;;;;;;;;6247983;28;20395;-77
2022/12/22 04:26:16;;;;;;;35.80;24.65;;;;;;;;;;6262434;28;20455;-76
2022/12/22 04:29:17;;;;;;;38.85;25.67;;;;;;;;;;6267110;28;20045;-76
2022/12/22 04:32:19;;;;;;;39.55;25.98;;;;;;;;;;6265466;28;20512;-76
2022/12/22 04:35:22;;;;;;;37.83;24.90;;;;;;;;;;6265189;28;20135;-73
2022/12/22 04:38:24;;;;;;;39.78;27.00;;;;;;;;;;6256123;28;20045;-72
2022/12/22 04:41:26;;;;;;;38.00;25.85;;;;;;;;;;6265957;28;20049;-77
2022/12/22 04:44:28;;;;;;;39.85;25.95;;;;;;;;;;6265272;28;20495;-78
2022/12/22 04:47:30;;;;;;;36.30;25.15;;;;;;;;;;6267553;28;20328;-78
2022/12/22 04:50:33;;;;;;;37.67;25.70;;;;;;;;;;6268322;28;20088;-74
2022/12/22 04:53:34;;;;;;;37.53;24.67;;;;;;;;;;6266419;28;20057;-77
2022/12/22 04:56:36;;;;;;;36.10;24.27;;;;;;;;;;6266659;28;20452;-75
2022/12/22 04:59:38;;;;;;;38.50;24.88;;;;;;;;;;6263464;28;20057;-76
2022/12/22 05:02:39;;;;;;;36.40;24.42;;;;;;;;;;6264130;28;20052;-76
2022/12/22 05:05:42;;;;;;;34.53;25.10;;;;;;;;;;6265887;28;20099;-76
2022/12/22 05:08:44;;;;;;;37.15;25.15;;;;;;;;;;6264675;28;20102;-76
2022/12/22 05:11:46;;;;;;;38.92;25.95;;;;;;;;;;6268477;28;20044;-74
2022/12/22 05:14:47;;;;;;;34.00;25.52;;;;;;;;;;6268134;28;20276;-76
2022/12/22 05:17:49;;;;;;;35.08;24.05;;;;;;;;;;6262618;28;20056;-76
2022/12/22 05:20:52;;;;;;;39.25;26.38;;;;;;;;;;6263460;28;20061;-77
2022/12/22 05:23:54;;;;;;;36.88;25.52;;;;;;;;;;6264004;28;20049;-76
2022/12/22 05:26:55;;;;;;;37.45;25.70;;;;;;;;;;6263553;28;20049;-78
2022/12/22 05:29:57;;;;;;;36.72;25.50;;;;;;;;;;6263182;28;20053;-78
2022/12/22 05:32:59;;;;;;;39.05;26.08;;;;;;;;;;6263428;28;20102;-76
2022/12/22 05:36:02;;;;;;;35.28;24.77;;;;;;;;;;6263345;28;20053;-78
2022/12/22 05:39:04;;;;;;;38.03;25.10;;;;;;;;;;6265329;28;20103;-75
2022/12/22 05:42:06;;;;;;;37.63;25.30;;;;;;;;;;6262097;28;20047;-74
2022/12/22 05:45:11;;;;;;;37.30;24.55;;;;;;;;;;6263673;28;20107;-78
2022/12/22 05:48:13;;;;;;;35.63;24.85;;;;;;;;;;6264544;28;20823;-78
2022/12/22 05:51:16;;;;;;;42.70;26.70;;;;;;;;;;6262622;28;20056;-73
2022/12/22 05:54:17;;;;;;;39.55;25.20;;;;;;;;;;6263302;28;20052;-76
2022/12/22 05:57:19;;;;;;;39.00;25.25;;;;;;;;;;6263417;28;20053;-79
2022/12/22 06:00:22;;;;;;;35.75;23.27;;;;;;;;;;6265501;28;20051;-78
2022/12/22 06:03:24;;;;;;;40.10;25.75;;;;;;;;;;6263337;28;20268;-73
2022/12/22 06:06:27;;;;;;;38.58;24.20;;;;;;;;;;6262702;28;20049;-73
2022/12/22 06:09:29;;;;;;;37.90;25.95;;;;;;;;;;6263738;28;20048;-76
2022/12/22 06:12:30;;;;;;;37.10;24.55;;;;;;;;;;6260489;28;20048;-76
2022/12/22 06:15:32;;;;;;;40.10;24.92;;;;;;;;;;6260073;28;20049;-73
2022/12/22 06:18:34;;;;;;;38.67;24.60;;;;;;;;;;6263877;28;20056;-78
2022/12/22 06:21:37;;;;;;;38.33;24.52;;;;;;;;;;6261844;28;20061;-77
2022/12/22 06:24:38;;;;;;;35.45;24.58;;;;;;;;;;6261954;28;20052;-76
2022/12/22 06:27:40;;;;;;;37.65;24.98;;;;;;;;;;6265599;28;20053;-78
2022/12/22 06:30:42;;;;;;;33.70;24.30;;;;;;;;;;6264767;28;20058;-76
2022/12/22 06:33:44;;;;;;;31.08;22.63;;;;;;;;;;6263830;28;20048;-71
2022/12/22 06:36:47;;;;;;;36.15;24.52;;;;;;;;;;6268719;28;20087;-78
2022/12/22 06:39:49;;;;;;;37.08;24.75;;;;;;;;;;6265286;28;20053;-78
2022/12/22 06:43:09;;;;;;;36.75;24.92;;;;;;;;;;6265905;28;20037;-77
2022/12/22 06:46:10;;;;;;;33.22;23.10;;;;;;;;;;6264736;28;20052;-78
2022/12/22 06:49:12;;;;;;;37.28;24.67;;;;;;;;;;6269734;28;20252;-78
2022/12/22 06:52:15;;;;;;;35.92;24.20;;;;;;;;;;6265009;28;20221;-78
2022/12/22 06:55:17;;;;;;;36.47;23.75;;;;;;;;;;6268295;28;20110;-76
2022/12/22 06:58:18;;;;;;;36.88;24.52;;;;;;;;;;6266165;28;20067;-76
2022/12/22 07:01:20;;;;;;;35.83;24.67;;;;;;;;;;6268732;28;20087;-78
2022/12/22 07:04:22;;;;;;;37.60;25.33;;;;;;;;;;6266361;28;20049;-79
2022/12/22 07:07:25;;;;;;;39.47;24.92;;;;;;;;;;6269385;28;20237;-71
2022/12/22 07:13:42;;;;;;;38.35;24.88;;;;;;;;;;6266947;28;20045;-78
2022/12/22 07:16:45;;;;;;;39.47;25.83;;;;;;;;;;6265256;28;20079;-78
2022/12/22 07:19:47;;;;;;;40.50;26.63;;;;;;;;;;6265987;28;20053;-78
2022/12/22 07:22:50;;;;;;;41.58;26.15;;;;;;;;;;6265907;28;20053;-78
2022/12/22 07:25:52;;;;;;;38.47;24.88;;;;;;;;;;6263791;28;20240;-77
2022/12/22 07:28:53;;;;;;;37.25;25.40;;;;;;;;;;6262655;28;20081;-76
2022/12/22 07:31:55;;;;;;;36.80;25.42;;;;;;;;;;6264240;28;20053;-70
2022/12/22 07:34:57;;;;;;;39.25;25.98;;;;;;;;;;6263269;28;20055;-76
2022/12/22 07:38:00;;;;;;;34.90;24.58;;;;;;;;;;6266291;28;20071;-73
2022/12/22 07:41:02;;;;;;;37.50;25.27;;;;;;;;;;6267756;28;20132;-76
2022/12/22 07:44:03;;;;;;;38.78;25.95;;;;;;;;;;6266064;28;20052;-76
2022/12/22 07:47:05;;;;;;;36.78;26.00;;;;;;;;;;6264318;28;20746;-76
2022/12/22 07:50:26;;;;;;;40.30;26.52;;;;;;;;;;6266564;28;20049;-76
2022/12/22 07:53:29;;;;;;;36.65;25.65;;;;;;;;;;6268454;28;20053;-76
2022/12/22 07:56:31;;;;;;;40.78;25.73;;;;;;;;;;6262165;28;20053;-76
2022/12/22 07:59:32;;;;;;;38.08;25.90;;;;;;;;;;6271055;28;20147;-76
2022/12/22 08:02:34;;;;;;;37.67;27.38;;;;;;;;;;6268380;28;20057;-74
2022/12/22 08:05:37;;;;;;;41.33;26.85;;;;;;;;;;6264045;28;20079;-76
2022/12/22 08:08:40;;;;;;;37.10;26.38;;;;;;;;;;6264869;28;20053;-72
2022/12/22 08:11:42;;;;;;;37.58;25.63;;;;;;;;;;6266021;28;20378;-76
2022/12/22 08:14:44;;;;;;;39.45;26.05;;;;;;;;;;6264525;28;20171;-77
2022/12/22 08:17:46;;;;;;;37.08;26.27;;;;;;;;;;6268508;28;20108;-76
2022/12/22 08:20:51;;;;;;;39.83;25.38;;;;;;;;;;6265858;28;20045;-76
2022/12/22 08:23:54;;;;;;;37.92;26.02;;;;;;;;;;6264311;28;20110;-77
2022/12/22 08:26:59;;;;;;;37.53;26.42;;;;;;;;;;6266268;28;20045;-77
2022/12/22 08:30:01;;;;;;;35.10;23.20;;;;;;;;;;6267720;28;20065;-73
2022/12/22 08:33:02;;;;;;;36.33;24.17;;;;;;;;;;6265562;28;20141;-76
2022/12/22 08:36:06;;;;;;;36.83;24.92;;;;;;;;;;6267675;28;20218;-77
2022/12/22 08:39:09;;;;;;;34.83;24.30;;;;;;;;;;6266882;28;20045;-76
2022/12/22 08:42:13;;;;;;;34.33;24.65;;;;;;;;;;6265164;28;20057;-77
2022/12/22 08:45:15;;;;;;;40.55;24.63;;;;;;;;;;6264976;28;20060;-76
2022/12/22 08:48:17;;;;;;;33.88;23.05;;;;;;;;;;6265813;28;20049;-72
2022/12/22 08:51:18;;;;;;;40.67;23.02;;;;;;;;;;6267139;28;20145;-74
2022/12/22 08:54:21;;;;;;;31.55;21.88;;;;;;;;;;6263435;28;20091;-77
2022/12/22 08:57:23;;;;;;;41.75;24.45;;;;;;;;;;6263867;28;20056;-76
2022/12/22 09:00:25;;;;;;;33.92;23.48;;;;;;;;;;6265388;28;20045;-76
2022/12/22 09:03:26;;;;;;;37.47;24.52;;;;;;;;;;6265885;28;20061;-76
2022/12/22 09:06:28;;;;;;;38.15;24.58;;;;;;;;;;6261416;28;20356;-77
2022/12/22 09:09:33;;;;;;;35.42;23.67;;;;;;;;;;6263544;28;20053;-76
2022/12/22 09:12:35;;;;;;;35.60;24.80;;;;;;;;;;6262823;28;20126;-72
2022/12/22 09:15:37;;;;;;;36.58;23.65;;;;;;;;;;6262249;28;20064;-77
2022/12/22 09:18:38;;;;;;;34.08;23.35;;;;;;;;;;6265422;28;20049;-76
2022/12/22 09:21:40;;;;;;;37.67;24.73;;;;;;;;;;6264197;28;20127;-75
2022/12/22 09:24:43;;;;;;;40.38;25.35;;;;;;;;;;6263355;28;20203;-77
2022/12/22 09:27:44;;;;;;;37.70;26.13;;;;;;;;;;6263832;28;20057;-76
2022/12/22 09:30:49;;;;;;;36.25;25.33;;;;;;;;;;6265366;28;20085;-76
2022/12/22 09:33:51;;;;;;;41.00;25.35;;;;;;;;;;6264118;28;20057;-77
2022/12/22 09:36:53;;;;;;;35.78;24.95;;;;;;;;;;6265240;28;20053;-78
2022/12/22 09:39:56;;;;;;;40.95;25.60;;;;;;;;;;6268361;28;20048;-77
2022/12/22 09:42:58;;;;;;;35.40;23.45;;;;;;;;;;6263647;28;20083;-76
2022/12/22 09:46:00;;;;;;;40.80;23.83;;;;;;;;;;6267359;28;20049;-77
2022/12/22 09:49:02;;;;;;;40.55;24.70;;;;;;;;;;6264470;28;20099;-77
2022/12/22 09:52:04;;;;;;;43.47;25.63;;;;;;;;;;6263325;28;20045;-75
2022/12/22 09:55:13;;;;;;;38.47;24.80;;;;;;;;;;6265737;28;20060;-77
2022/12/22 09:58:19;;;;;;;37.40;24.92;;;;;;;;;;6263196;28;20057;-77
2022/12/22 10:01:32;;;;;;;35.63;23.42;;;;;;;;;;6266447;28;20056;-77
2022/12/22 10:04:51;;;;;;;33.63;23.40;;;;;;;;;;6264148;28;20103;-75
2022/12/22 10:07:54;;;;;;;33.63;23.85;;;;;;;;;;6263342;28;20083;-75
2022/12/22 10:10:57;;;;;;;37.10;24.77;;;;;;;;;;6264809;28;20122;-77
2022/12/22 10:13:58;;;;;;;31.63;23.77;;;;;;;;;;6266665;28;20330;-77
2022/12/22 10:17:15;;;;;;;38.60;23.88;;;;;;;;;;6269755;28;20052;-77
2022/12/22 10:20:24;;;;;;;37.45;25.30;;;;;;;;;;6269587;28;20057;-77
2022/12/22 10:23:29;;;;;;;40.65;27.05;;;;;;;;;;6268018;28;20225;-77
2022/12/22 10:26:33;;;;;;;39.33;25.75;;;;;;;;;;6265684;28;20060;-77
2022/12/22 10:29:36;;;;;;;37.83;25.33;;;;;;;;;;6270040;28;20056;-75
2022/12/22 10:32:37;;;;;;;35.58;25.45;;;;;;;;;;6268410;28;20111;-76
2022/12/22 10:35:45;;;;;;;36.75;24.38;;;;;;;;;;6268058;28;20337;-78
2022/12/22 10:38:56;;;;;;;33.65;24.33;;;;;;;;;;6269335;28;20053;-74
2022/12/22 10:42:02;;;;;;;31.20;22.75;;;;;;;;;;6270546;28;20057;-77
2022/12/22 10:45:05;;;;;;;33.67;23.88;;;;;;;;;;6268089;28;20098;-77
2022/12/22 10:48:06;;;;;;;36.08;23.92;;;;;;;;;;6266354;28;20110;-79
2022/12/22 10:51:11;;;;;;;41.42;24.27;;;;;;;;;;6265997;28;20053;-77
2022/12/22 10:54:25;;;;;;;34.78;24.35;;;;;;;;;;6268021;28;20056;-76
2022/12/22 10:57:30;;;;;;;34.58;24.77;;;;;;;;;;6268696;28;20045;-77
2022/12/22 11:00:32;;;;;;;33.55;24.42;;;;;;;;;;6269693;28;20053;-77
2022/12/22 11:03:33;;;;;;;31.80;23.35;;;;;;;;;;6266680;28;20103;-78
2022/12/22 11:06:35;;;;;;;34.58;23.23;;;;;;;;;;6266771;28;20049;-72
2022/12/22 11:09:36;;;;;;;33.63;23.02;;;;;;;;;;6268544;28;20051;-75
2022/12/22 11:13:02;;;;;;;30.17;22.70;;;;;;;;;;6266351;28;20336;-74
2022/12/22 11:16:09;;;;;;;29.83;21.63;;;;;;;;;;6266902;28;20049;-77
2022/12/22 11:19:25;;;;;;;32.88;24.20;;;;;;;;;;6268976;28;20045;-75
2022/12/22 11:22:33;;;;;;;31.75;22.92;;;;;;;;;;6268735;28;20049;-75
2022/12/22 11:25:43;;;;;;;32.75;24.63;;;;;;;;;;6264947;28;20316;-76
2022/12/22 11:29:00;;;;;;;54.10;37.15;;;;;;;;;;6266592;28;20103;-77
2022/12/22 11:32:13;;;;;;;42.95;29.38;;;;;;;;;;6269043;28;20126;-77
2022/12/22 11:35:20;;;;;;;42.85;29.02;;;;;;;;;;6267020;28;20057;-76
2022/12/22 11:38:33;;;;;;;33.05;24.35;;;;;;;;;;6264443;28;20341;-76
2022/12/22 11:41:53;;;;;;;34.00;25.42;;;;;;;;;;6263753;28;20088;-76
2022/12/22 11:45:04;;;;;;;41.67;26.30;;;;;;;;;;6266714;28;20099;-76
2022/12/22 11:48:14;;;;;;;37.33;26.08;;;;;;;;;;6268043;28;20057;-76
2022/12/22 11:51:22;;;;;;;34.72;24.83;;;;;;;;;;6265501;28;20094;-76
2022/12/22 11:54:40;;;;;;;37.75;26.95;;;;;;;;;;6267196;28;20057;-74
2022/12/22 11:57:50;;;;;;;35.88;25.38;;;;;;;;;;6267402;28;20333;-76
2022/12/22 12:01:00;;;;;;;35.70;24.63;;;;;;;;;;6268828;28;20095;-72
2022/12/22 12:04:38;;;;;;;32.78;24.75;;;;;;;;;;6263168;28;20064;-74
2022/12/22 12:07:41;;;;;;;31.15;23.70;;;;;;;;;;6165174;28;20055;-75
2022/12/22 12:10:46;;;;;;;32.05;24.42;;;;;;;;;;6166076;28;20063;-76
2022/12/22 12:13:54;;;;;;;37.45;24.65;;;;;;;;;;6164035;28;20267;-73
2022/12/22 12:16:59;;;;;;;34.88;25.42;;;;;;;;;;6164311;28;20063;-76
2022/12/22 12:20:12;;;;;;;33.28;24.15;;;;;;;;;;6167453;28;20231;-74
2022/12/22 12:23:23;;;;;;;34.10;24.65;;;;;;;;;;6167368;28;20410;-77
2022/12/22 12:26:27;;;;;;;32.78;23.58;;;;;;;;;;6166231;28;20156;-73
2022/12/22 12:29:35;;;;;;;33.28;24.02;;;;;;;;;;6169778;28;20306;-77
2022/12/22 12:32:42;;;;;;;36.33;25.52;;;;;;;;;;6168632;28;20066;-74
2022/12/22 12:35:51;;;;;;;35.53;25.23;;;;;;;;;;6166236;28;20058;-74
2022/12/22 12:38:59;;;;;;;35.55;25.50;;;;;;;;;;6168405;28;20644;-74
2022/12/22 12:42:05;;;;;;;36.58;25.45;;;;;;;;;;6237148;28;20140;-77
2022/12/22 12:45:34;;;;;;;33.42;24.92;;;;;;;;;;6268240;28;20235;-71
2022/12/22 12:48:41;;;;;;;35.67;25.00;;;;;;;;;;6264669;28;20061;-78
2022/12/22 12:51:48;;;;;;;35.13;25.20;;;;;;;;;;6265389;28;20053;-75
2022/12/22 12:54:50;;;;;;;33.75;23.30;;;;;;;;;;6264898;28;20111;-77
2022/12/22 12:57:52;;;;;;;32.90;24.02;;;;;;;;;;6264643;28;20065;-78
2022/12/22 13:00:54;;;;;;;36.60;24.80;;;;;;;;;;6266576;28;20049;-76
2022/12/22 13:03:57;;;;;;;34.30;25.17;;;;;;;;;;6265054;28;20099;-73
2022/12/22 13:06:59;;;;;;;38.80;25.65;;;;;;;;;;6266578;28;20087;-76
2022/12/22 13:10:07;;;;;;;27.80;22.40;;;;;;;;;;6265438;28;20049;-76
2022/12/22 13:13:28;;;;;;;31.17;22.00;;;;;;;;;;6263028;28;20060;-73
2022/12/22 13:16:33;;;;;;;28.08;20.52;;;;;;;;;;6262773;28;20060;-75
2022/12/22 13:19:36;;;;;;;30.25;20.45;;;;;;;;;;6266198;28;20056;-76
2022/12/22 13:22:38;;;;;;;28.70;19.67;;;;;;;;;;6261277;28;20053;-73
2022/12/22 13:25:43;;;;;;;27.20;18.88;;;;;;;;;;6265548;28;20045;-76
2022/12/22 13:28:50;;;;;;;24.05;17.92;;;;;;;;;;6266824;28;20151;-76
2022/12/22 13:31:54;;;;;;;25.35;17.48;;;;;;;;;;6264317;28;20065;-76
2022/12/22 13:35:05;;;;;;;23.98;16.55;;;;;;;;;;6266764;28;20108;-74
2022/12/22 13:38:25;;;;;;;27.30;18.35;;;;;;;;;;6266756;28;20633;-76
2022/12/22 13:41:26;;;;;;;23.35;17.55;;;;;;;;;;6263669;28;20045;-73
2022/12/22 13:44:29;;;;;;;21.52;17.10;;;;;;;;;;6262785;28;20261;-76
2022/12/22 13:47:32;;;;;;;25.02;18.00;;;;;;;;;;6271339;28;20295;-74
2022/12/22 13:50:37;;;;;;;25.85;17.95;;;;;;;;;;6270282;28;20237;-76
2022/12/22 13:53:41;;;;;;;23.05;17.20;;;;;;;;;;6268042;28;20076;-74
2022/12/22 13:56:45;;;;;;;24.38;16.67;;;;;;;;;;6270868;28;20348;-77
2022/12/22 13:59:49;;;;;;;21.65;15.35;;;;;;;;;;6269621;28;20415;-77
2022/12/22 14:02:51;;;;;;;;;;;;;;;;;;6269985;28;20049;-74
2022/12/22 14:05:54;;;;;;;23.13;15.48;;;;;;;;;;6270583;28;20147;-73
2022/12/22 14:09:09;;;;;;;25.05;15.55;;;;;;;;;;6268725;28;20351;-72
2022/12/22 14:12:14;;;;;;;21.27;15.70;;;;;;;;;;6271986;28;20554;-76
2022/12/22 14:15:18;;;;;;;46.05;28.73;;;;;;;;;;6267243;28;20103;-77
2022/12/22 14:18:24;;;;;;;33.92;20.08;;;;;;;;;;6267962;28;20061;-75
2022/12/22 14:21:27;;;;;;;22.52;15.70;;;;;;;;;;6268471;28;20045;-74
2022/12/22 14:24:32;;;;;;;21.77;15.68;;;;;;;;;;6272674;28;20053;-75
2022/12/22 14:27:37;;;;;;;19.40;14.68;;;;;;;;;;6269160;28;20049;-75
2022/12/22 14:30:43;;;;;;;19.52;14.13;;;;;;;;;;6272525;28;20104;-75
2022/12/22 14:33:52;;;;;;;21.15;14.98;;;;;;;;;;6273064;28;20213;-74
2022/12/22 14:36:55;;;;;;;21.02;14.65;;;;;;;;;;6275095;28;20063;-78
2022/12/22 14:39:57;;;;;;;21.25;13.98;;;;;;;;;;6271705;28;20063;-77
2022/12/22 14:43:00;;;;;;;20.35;13.73;;;;;;;;;;6272829;28;20135;-77
2022/12/22 14:46:05;;;;;;;20.67;14.77;;;;;;;;;;6274781;28;20098;-74
2022/12/22 14:49:13;;;;;;;18.50;13.57;;;;;;;;;;6275559;28;20052;-70
2022/12/22 14:52:20;;;;;;;19.00;14.13;;;;;;;;;;6269552;28;20083;-72
2022/12/22 14:55:26;;;;;;;19.17;13.77;;;;;;;;;;6267791;28;20107;-72
2022/12/22 14:58:31;;;;;;;22.40;15.52;;;;;;;;;;6268257;28;20041;-71
2022/12/22 15:01:33;;;;;;;19.92;14.27;;;;;;;;;;6268209;28;20106;-71
2022/12/22 15:04:35;;;;;;;21.27;14.27;;;;;;;;;;6266976;28;20065;-71
2022/12/22 15:07:46;;;;;;;20.30;14.40;;;;;;;;;;6265684;28;20045;-72
2022/12/22 15:10:48;;;;;;;21.27;14.75;;;;;;;;;;6267901;28;20052;-74
2022/12/22 15:13:50;;;;;;;20.27;14.18;;;;;;;;;;6267982;28;20052;-74
2022/12/22 15:16:55;;;;;;;21.58;14.95;;;;;;;;;;6265584;28;20084;-77
2022/12/22 15:19:57;;;;;;;22.02;15.13;;;;;;;;;;6266741;28;20277;-72
2022/12/22 15:23:00;;;;;;;20.52;15.68;;;;;;;;;;6267199;28;20051;-78
2022/12/22 15:26:02;;;;;;;22.48;15.20;;;;;;;;;;6264616;28;20045;-79
2022/12/22 15:29:04;;;;;;;20.40;15.65;;;;;;;;;;6265204;28;20053;-80
2022/12/22 15:32:10;;;;;;;25.15;15.25;;;;;;;;;;6263700;28;20060;-78
2022/12/22 15:35:19;;;;;;;23.17;16.15;;;;;;;;;;6270120;28;20061;-73
2022/12/22 15:38:24;;;;;;;23.50;16.67;;;;;;;;;;6265026;28;20088;-71
2022/12/22 15:41:26;;;;;;;21.77;16.27;;;;;;;;;;6269263;28;20086;-73
2022/12/22 15:44:27;;;;;;;24.58;15.77;;;;;;;;;;6266622;28;20371;-72
2022/12/22 15:47:29;;;;;;;24.50;16.15;;;;;;;;;;6267880;28;20284;-72
2022/12/22 15:50:33;;;;;;;20.10;15.38;;;;;;;;;;6267110;28;20271;-72
2022/12/22 15:53:37;;;;;;;23.00;16.05;;;;;;;;;;6264469;28;20049;-72
2022/12/22 15:56:38;;;;;;;25.20;16.53;;;;;;;;;;6268830;28;20333;-73
2022/12/22 15:59:40;;;;;;;24.25;16.25;;;;;;;;;;6263783;28;20053;-72
2022/12/22 16:02:41;;;;;;;24.40;17.30;;;;;;;;;;6264995;28;20120;-72
2022/12/22 16:05:45;;;;;;;26.33;16.55;;;;;;;;;;6266625;28;20045;-72
2022/12/22 16:08:50;;;;;;;25.57;16.57;;;;;;;;;;6265005;28;20091;-72
2022/12/22 16:11:52;;;;;;;22.17;15.95;;;;;;;;;;6264882;28;20276;-72
2022/12/22 16:14:55;;;;;;;23.63;16.23;;;;;;;;;;6263298;28;20167;-73
2022/12/22 16:17:57;;;;;;;20.45;15.48;;;;;;;;;;6264708;28;20065;-72
2022/12/22 16:21:06;;;;;;;20.90;15.18;;;;;;;;;;6263860;28;20057;-72
2022/12/22 16:24:19;;;;;;;25.38;16.00;;;;;;;;;;6265471;28;20053;-75
2022/12/22 16:27:21;;;;;;;23.38;15.75;;;;;;;;;;6265259;28;20214;-78
2022/12/22 16:30:24;;;;;;;23.13;15.82;;;;;;;;;;6266131;28;20271;-76
2022/12/22 16:33:25;;;;;;;23.08;15.45;;;;;;;;;;6265551;28;20248;-77
2022/12/22 16:36:27;;;;;;;22.85;15.13;;;;;;;;;;6269696;28;20061;-78
2022/12/22 16:39:30;;;;;;;25.52;16.35;;;;;;;;;;6263496;28;20056;-72
2022/12/22 16:42:32;;;;;;;25.13;16.50;;;;;;;;;;6267215;28;20048;-76
2022/12/22 16:45:35;;;;;;;27.05;17.38;;;;;;;;;;6261246;28;20054;-76
2022/12/22 16:48:40;;;;;;;29.25;17.75;;;;;;;;;;6266045;28;20060;-77
2022/12/22 16:51:46;;;;;;;27.83;17.30;;;;;;;;;;6265327;28;20103;-74
2022/12/22 16:54:49;;;;;;;29.30;19.35;;;;;;;;;;6266137;28;20360;-77
2022/12/22 16:57:51;;;;;;;27.33;18.77;;;;;;;;;;6262432;28;20182;-76
2022/12/22 17:00:52;;;;;;;29.60;19.60;;;;;;;;;;6261703;28;20119;-76
2022/12/22 17:03:54;;;;;;;29.95;20.05;;;;;;;;;;6265023;28;20057;-76
2022/12/22 17:06:57;;;;;;;31.27;20.58;;;;;;;;;;6262909;28;20328;-78
2022/12/22 17:10:01;;;;;;;31.58;20.73;;;;;;;;;;6263615;28;20053;-74
2022/12/22 17:13:03;;;;;;;38.88;21.88;;;;;;;;;;6262462;28;20053;-74
2022/12/22 17:16:05;;;;;;;32.60;21.48;;;;;;;;;;6264160;28;20072;-76
2022/12/22 17:19:09;;;;;;;32.30;22.77;;;;;;;;;;6265309;28;20095;-77
2022/12/22 17:22:21;;;;;;;30.45;21.77;;;;;;;;;;6265648;28;20318;-70
2022/12/22 17:25:26;;;;;;;33.55;22.73;;;;;;;;;;6262712;28;20121;-75
2022/12/22 17:28:28;;;;;;;32.60;22.02;;;;;;;;;;6262587;28;20053;-70
2022/12/22 17:31:30;;;;;;;33.13;21.27;;;;;;;;;;6261765;28;20049;-78
2022/12/22 17:34:32;;;;;;;33.83;21.17;;;;;;;;;;6261006;28;20074;-78
2022/12/22 17:37:33;;;;;;;32.65;21.38;;;;;;;;;;6264984;28;20463;-74
2022/12/22 17:40:36;;;;;;;32.80;22.02;;;;;;;;;;6265569;28;20099;-78
2022/12/22 17:43:38;;;;;;;34.78;20.80;;;;;;;;;;6261309;28;20275;-79
2022/12/22 17:46:39;;;;;;;34.50;21.60;;;;;;;;;;6263931;28;20049;-78
2022/12/22 17:49:41;;;;;;;31.25;20.75;;;;;;;;;;6261537;28;20091;-78
2022/12/22 17:52:45;;;;;;;35.53;22.05;;;;;;;;;;6263955;28;20242;-77
2022/12/22 17:55:50;;;;;;;30.83;20.63;;;;;;;;;;6262819;28;20344;-80
2022/12/22 17:58:52;;;;;;;29.42;19.70;;;;;;;;;;6264045;28;20109;-80
2022/12/22 18:01:54;;;;;;;32.15;21.58;;;;;;;;;;6262316;28;20060;-81
2022/12/22 18:04:56;;;;;;;30.42;21.48;;;;;;;;;;6263219;28;20376;-80
2022/12/22 18:07:58;;;;;;;31.42;21.50;;;;;;;;;;6262499;28;20112;-75
2022/12/22 18:11:02;;;;;;;33.13;22.40;;;;;;;;;;6263121;28;20048;-77
2022/12/22 18:14:04;;;;;;;33.83;22.07;;;;;;;;;;6266683;28;20486;-78
2022/12/22 18:17:05;;;;;;;33.00;21.90;;;;;;;;;;6264658;28;20057;-73
2022/12/22 18:20:09;;;;;;;40.30;25.27;;;;;;;;;;6261066;28;20084;-78
2022/12/22 18:23:15;;;;;;;33.05;22.63;;;;;;;;;;6261793;28;20193;-77
2022/12/22 18:26:22;;;;;;;35.83;23.95;;;;;;;;;;6262367;28;20119;-75
2022/12/22 18:29:24;;;;;;;34.90;23.95;;;;;;;;;;6263522;28;20325;-75
2022/12/22 18:32:25;;;;;;;35.78;24.10;;;;;;;;;;6263937;28;20107;-76
2022/12/22 18:35:27;;;;;;;37.75;24.73;;;;;;;;;;6268122;28;20340;-76
2022/12/22 18:38:31;;;;;;;37.03;24.52;;;;;;;;;;6265883;28;20053;-76
2022/12/22 18:41:34;;;;;;;34.47;23.80;;;;;;;;;;6267345;28;20053;-76
2022/12/22 18:44:36;;;;;;;42.33;24.97;;;;;;;;;;6268694;28;20050;-78
2022/12/22 18:47:38;;;;;;;41.80;26.95;;;;;;;;;;6266286;28;20049;-72
2022/12/22 18:50:40;;;;;;;105.30;54.88;;;;;;;;;;6271715;28;20048;-76
2022/12/22 18:53:42;;;;;;;209.02;107.45;;;;;;;;;;6266075;28;20685;-77
2022/12/22 18:56:45;;;;;;;62.33;38.85;;;;;;;;;;6266615;28;20065;-78
2022/12/22 18:59:47;;;;;;;55.33;33.88;;;;;;;;;;6267696;28;20176;-76
2022/12/22 19:02:50;;;;;;;136.43;72.50;;;;;;;;;;6266893;28;20064;-76
2022/12/22 19:05:52;;;;;;;90.85;48.10;;;;;;;;;;6266479;28;20049;-70
2022/12/22 19:08:54;;;;;;;55.30;33.95;;;;;;;;;;6268396;28;20201;-78
2022/12/22 19:11:57;;;;;;;38.28;25.67;;;;;;;;;;6264878;28;20057;-78
2022/12/22 19:15:03;;;;;;;39.55;25.75;;;;;;;;;;6265267;28;20117;-78
2022/12/22 19:18:05;;;;;;;42.03;26.95;;;;;;;;;;6264981;28;20060;-78
2022/12/22 19:21:10;;;;;;;39.50;26.52;;;;;;;;;;6267774;28;20045;-77
2022/12/22 19:24:12;;;;;;;41.67;27.02;;;;;;;;;;6267267;28;20048;-78
2022/12/22 19:27:17;;;;;;;36.72;25.63;;;;;;;;;;6267596;28;20057;-78
2022/12/22 19:30:21;;;;;;;39.33;25.50;;;;;;;;;;6264882;28;20416;-77
2022/12/22 19:33:26;;;;;;;40.80;26.88;;;;;;;;;;6267195;28;20699;-78
2022/12/22 19:36:29;;;;;;;41.63;26.60;;;;;;;;;;6265148;28;20060;-77
2022/12/22 19:39:30;;;;;;;39.90;27.10;;;;;;;;;;6269845;28;20056;-75
2022/12/22 19:42:33;;;;;;;42.05;27.27;;;;;;;;;;6263528;28;20354;-76
2022/12/22 19:45:35;;;;;;;40.15;25.35;;;;;;;;;;6264640;28;20057;-77
2022/12/22 19:48:37;;;;;;;45.45;27.15;;;;;;;;;;6266687;28;20063;-76
2022/12/22 19:51:38;;;;;;;40.10;26.02;;;;;;;;;;6264536;28;20142;-73
2022/12/22 19:54:40;;;;;;;38.00;26.45;;;;;;;;;;6264624;28;20044;-72
2022/12/22 19:57:45;;;;;;;38.10;25.70;;;;;;;;;;6268184;28;20054;-77
2022/12/22 20:00:47;;;;;;;42.35;25.73;;;;;;;;;;6269643;28;20302;-77
2022/12/22 20:03:49;;;;;;;37.80;25.45;;;;;;;;;;6264789;28;20073;-72
2022/12/22 20:06:50;;;;;;;42.50;27.27;;;;;;;;;;6266560;28;20060;-76
2022/12/22 20:09:52;;;;;;;33.28;23.80;;;;;;;;;;6264581;28;20311;-77
2022/12/22 20:12:57;;;;;;;35.88;24.05;;;;;;;;;;6266408;28;20053;-77
2022/12/22 20:15:59;;;;;;;37.22;23.60;;;;;;;;;;6263777;28;20049;-73
2022/12/22 20:19:02;;;;;;;35.72;23.63;;;;;;;;;;6266825;28;20053;-76
2022/12/22 20:22:04;;;;;;;36.20;23.67;;;;;;;;;;6262276;28;20224;-76
2022/12/22 20:25:06;;;;;;;35.92;24.33;;;;;;;;;;6265270;28;20049;-76
2022/12/22 20:28:16;;;;;;;35.17;24.02;;;;;;;;;;6266844;28;20044;-76
2022/12/22 20:31:20;;;;;;;34.60;23.77;;;;;;;;;;6266086;28;20077;-75
2022/12/22 20:34:22;;;;;;;;;;;;;;;;;;6265073;28;20364;-76
2022/12/22 20:37:24;;;;;;;39.58;22.77;;;;;;;;;;6262857;28;19924;-76
2022/12/22 20:40:27;;;;;;;35.72;21.88;;;;;;;;;;6262206;28;20249;-74
2022/12/22 20:43:32;;;;;;;35.70;22.50;;;;;;;;;;6264805;28;20301;-75
2022/12/22 20:46:35;;;;;;;29.02;20.52;;;;;;;;;;6263472;28;20225;-70
2022/12/22 20:49:37;;;;;;;33.00;21.35;;;;;;;;;;6261137;28;20387;-74
2022/12/22 20:52:39;;;;;;;33.85;21.38;;;;;;;;;;6265290;28;20045;-75
2022/12/22 20:55:40;;;;;;;37.15;23.10;;;;;;;;;;6261911;28;20430;-75
2022/12/22 20:58:44;;;;;;;34.67;23.90;;;;;;;;;;6264163;28;20055;-76
2022/12/22 21:01:46;;;;;;;40.20;27.98;;;;;;;;;;6262228;28;20069;-75
2022/12/22 21:04:48;;;;;;;41.28;27.52;;;;;;;;;;6265138;28;20052;-76
2022/12/22 21:07:51;;;;;;;44.20;29.63;;;;;;;;;;6263317;28;20264;-75
2022/12/22 21:10:54;;;;;;;41.75;28.95;;;;;;;;;;6266304;28;20048;-76
2022/12/22 21:13:58;;;;;;;42.45;27.92;;;;;;;;;;6264495;28;20053;-74
2022/12/22 21:17:00;;;;;;;41.95;26.73;;;;;;;;;;6261659;28;20059;-75
2022/12/22 21:20:01;;;;;;;38.85;25.90;;;;;;;;;;6262596;28;20053;-70
2022/12/22 21:23:03;;;;;;;42.03;26.52;;;;;;;;;;6265135;28;20305;-76
2022/12/22 21:26:07;;;;;;;41.75;26.80;;;;;;;;;;6263948;28;20144;-74
2022/12/22 21:29:14;;;;;;;42.33;26.67;;;;;;;;;;6263482;28;20053;-76